Time;durP1;ratioP1;P1;durP2;ratioP2;P2;SDS_P1;SDS_P2;PMS_P1;PMS_P2;Temp;Humidity;BMP_temperature;BMP_pressure;BME280_temperature;BME280_humidity;BME280_pressure;Samples;Min_cycle;Max_cycle;Signal;HPM_P1;HPM_P2
2021/07/08 00:00:49;;;;;;;4.70;1.90;;;;;;;21.98;86.26;101298.41;5077603;28;20504;-75
2021/07/08 00:03:15;;;;;;;5.05;2.20;;;;;;;21.82;86.93;101300.22;5078804;28;20496;-75
2021/07/08 00:05:42;;;;;;;4.38;2.08;;;;;;;21.81;87.00;101293.19;5077982;28;20036;-75
2021/07/08 00:08:09;;;;;;;3.65;2.20;;;;;;;21.87;86.66;101292.31;5080648;28;20030;-75
2021/07/08 00:10:45;;;;;;;6.47;2.20;;;;;;;21.93;86.34;101292.59;5083503;28;20063;-75
2021/07/08 00:13:11;;;;;;;6.38;2.45;;;;;;;21.83;86.02;101288.06;5083171;28;20063;-75
2021/07/08 00:15:37;;;;;;;5.22;2.10;;;;;;;21.73;86.83;101292.50;5082875;28;20048;-75
2021/07/08 00:18:07;;;;;;;4.90;2.20;;;;;;;21.75;86.95;101289.31;5086087;28;20075;-75
2021/07/08 00:20:34;;;;;;;3.83;2.33;;;;;;;21.72;87.09;101293.66;5090755;28;20031;-75
2021/07/08 00:22:59;;;;;;;4.25;2.50;;;;;;;21.70;87.50;101295.28;5084543;28;20550;-75
2021/07/08 00:25:28;;;;;;;4.82;2.35;;;;;;;21.79;86.78;101290.84;5085422;28;20040;-75
2021/07/08 00:27:54;;;;;;;5.22;2.38;;;;;;;21.82;87.40;101297.47;5087545;28;20032;-75
2021/07/08 00:30:20;;;;;;;3.78;2.47;;;;;;;21.65;87.86;101293.00;5082240;28;20032;-75
2021/07/08 00:32:47;;;;;;;5.38;2.38;;;;;;;21.54;88.87;101293.16;5087534;28;20068;-75
2021/07/08 00:35:13;;;;;;;2.75;2.13;;;;;;;21.63;89.05;101295.38;5079049;28;20036;-75
2021/07/08 00:37:39;;;;;;;4.65;2.40;;;;;;;21.56;89.38;101297.03;5095565;28;20028;-75
2021/07/08 00:40:08;;;;;;;7.28;2.53;;;;;;;21.57;89.26;101297.81;5088085;28;20534;-75
2021/07/08 00:42:34;;;;;;;4.55;2.20;;;;;;;21.58;89.65;101288.41;5066763;28;20059;-75
2021/07/08 00:45:00;;;;;;;4.03;2.70;;;;;;;21.51;90.18;101299.47;5093596;28;20055;-76
2021/07/08 00:47:25;;;;;;;4.68;2.40;;;;;;;21.45;90.57;101290.94;5075100;28;20119;-75
2021/07/08 00:49:51;;;;;;;3.08;2.20;;;;;;;21.36;90.75;101287.94;5097346;28;20118;-75
2021/07/08 00:52:17;;;;;;;5.32;2.40;;;;;;;21.27;91.40;101289.63;5092949;28;20031;-75
2021/07/08 00:54:42;;;;;;;4.88;2.55;;;;;;;21.31;91.24;101291.09;5091557;28;20059;-75
2021/07/08 00:57:08;;;;;;;3.70;2.72;;;;;;;21.46;90.98;101295.22;5097519;28;20468;-75
2021/07/08 00:59:45;;;;;;;4.00;2.15;;;;;;;21.39;90.85;101297.28;5091934;28;20078;-75
2021/07/08 01:02:15;;;;;;;6.15;2.70;;;;;;;21.37;91.30;101291.44;5086089;28;20496;-75
2021/07/08 01:04:44;;;;;;;3.75;2.28;;;;;;;21.50;90.41;101301.41;5098805;28;20032;-75
2021/07/08 01:07:15;;;;;;;5.85;2.15;;;;;;;21.50;91.00;101295.94;5088641;28;20068;-75
2021/07/08 01:09:41;;;;;;;7.38;2.72;;;;;;;21.51;90.49;101300.25;5091283;28;20488;-75
2021/07/08 01:12:08;;;;;;;4.93;2.40;;;;;;;21.49;90.91;101302.63;5086501;28;20067;-75
2021/07/08 01:14:34;;;;;;;7.25;2.20;;;;;;;21.57;90.87;101303.28;5089689;28;20063;-75
2021/07/08 01:17:00;;;;;;;2.97;2.13;;;;;;;21.52;91.37;101301.78;5091390;28;20040;-75
2021/07/08 01:19:27;;;;;;;4.80;2.40;;;;;;;21.35;91.94;101308.28;5082533;28;20021;-75
2021/07/08 01:21:53;;;;;;;3.63;2.17;;;;;;;21.34;92.63;101305.97;5098151;28;20058;-75
2021/07/08 01:24:19;;;;;;;5.07;2.38;;;;;;;21.23;93.25;101306.13;5099421;28;20075;-75
2021/07/08 01:26:45;;;;;;;3.20;2.30;;;;;;;21.13;93.56;101306.25;5092852;28;20028;-75
2021/07/08 01:29:12;;;;;;;3.03;2.50;;;;;;;21.09;93.66;101305.50;5083593;28;20032;-74
2021/07/08 01:31:37;;;;;;;3.03;2.42;;;;;;;21.04;94.00;101312.19;5096940;28;20035;-74
2021/07/08 01:34:03;;;;;;;4.53;2.55;;;;;;;20.95;94.95;101311.91;5090687;28;20043;-75
2021/07/08 01:36:29;;;;;;;5.32;2.53;;;;;;;20.92;95.06;101310.00;5086878;28;20246;-74
2021/07/08 01:38:54;;;;;;;4.30;2.78;;;;;;;20.88;95.44;101308.47;5091266;28;20027;-75
2021/07/08 01:41:20;;;;;;;4.93;2.58;;;;;;;21.07;94.65;101305.91;5102333;28;20032;-75
2021/07/08 01:43:46;;;;;;;5.43;2.63;;;;;;;21.15;94.21;101293.69;5090348;28;20548;-74
2021/07/08 01:46:16;;;;;;;4.57;2.83;;;;;;;21.12;94.19;101299.97;5087635;28;20036;-74
2021/07/08 01:48:43;;;;;;;7.93;2.65;;;;;;;20.75;95.93;101308.19;5088079;28;20046;-74
2021/07/08 01:51:32;;;;;;;2.97;2.58;;;;;;;20.78;95.25;101295.66;5094337;28;20039;-74
2021/07/08 01:53:59;;;;;;;6.35;2.60;;;;;;;20.72;96.30;101295.34;5095674;28;20484;-74
2021/07/08 01:56:25;;;;;;;5.07;2.58;;;;;;;20.82;95.92;101296.41;5103427;28;20016;-74
2021/07/08 01:58:52;;;;;;;5.85;2.80;;;;;;;20.84;95.98;101294.81;5085893;28;20020;-75
2021/07/08 02:03:54;;;;;;;4.43;3.10;;;;;;;20.67;96.83;101309.47;4963417;28;20404;-77
2021/07/08 02:06:20;;;;;;;5.50;2.90;;;;;;;20.70;96.49;101300.44;4954886;28;20030;-77
2021/07/08 02:08:46;;;;;;;5.05;2.75;;;;;;;20.80;96.25;101305.03;4975897;28;20038;-77
2021/07/08 02:11:12;;;;;;;3.10;2.40;;;;;;;20.85;96.34;101292.88;4963558;28;20045;-77
2021/07/08 02:13:38;;;;;;;6.00;2.90;;;;;;;20.85;95.86;101295.59;4981751;28;20027;-75
2021/07/08 02:16:06;;;;;;;3.25;2.83;;;;;;;20.85;96.07;101296.34;4981297;28;20042;-74
2021/07/08 02:18:32;;;;;;;4.25;2.90;;;;;;;20.83;96.59;101295.22;4978969;28;20092;-77
2021/07/08 02:20:59;;;;;;;3.65;2.88;;;;;;;20.84;96.77;101300.28;4967333;28;20149;-77
2021/07/08 02:23:24;;;;;;;3.42;3.00;;;;;;;20.74;96.83;101306.66;4974390;28;20034;-77
2021/07/08 02:25:50;;;;;;;4.55;3.13;;;;;;;20.66;96.99;101305.19;4983389;28;20759;-76
2021/07/08 02:28:16;;;;;;;4.38;2.83;;;;;;;20.61;97.28;101305.63;4980818;28;20550;-77
2021/07/08 02:30:41;;;;;;;5.05;2.90;;;;;;;20.71;96.55;101296.53;4977978;28;20034;-77
2021/07/08 02:33:08;;;;;;;6.28;3.10;;;;;;;20.70;96.97;101294.97;4966602;28;20316;-77
2021/07/08 02:35:35;;;;;;;5.43;3.22;;;;;;;20.54;97.95;101295.53;4946291;28;20468;-77
2021/07/08 02:38:00;;;;;;;5.93;2.85;;;;;;;20.53;98.20;101284.97;4956398;28;20034;-76
2021/07/08 02:40:31;;;;;;;6.32;2.90;;;;;;;20.68;97.12;101286.38;4975927;28;20542;-77
2021/07/08 02:42:58;;;;;;;7.85;3.10;;;;;;;20.54;97.87;101292.00;4981613;28;20129;-77
2021/07/08 02:45:26;;;;;;;5.68;3.10;;;;;;;20.64;97.89;101296.59;4982399;28;20435;-77
2021/07/08 02:47:52;;;;;;;5.05;2.97;;;;;;;20.66;97.58;101294.22;4987086;28;20372;-77
2021/07/08 02:50:20;;;;;;;4.75;3.08;;;;;;;20.60;97.59;101301.31;4973808;28;20039;-77
2021/07/08 02:52:48;;;;;;;4.90;2.92;;;;;;;20.65;97.31;101290.69;4972191;28;20502;-77
2021/07/08 02:55:14;;;;;;;4.75;3.30;;;;;;;20.61;97.43;101294.69;4980345;28;20033;-77
2021/07/08 02:57:40;;;;;;;5.22;2.70;;;;;;;20.60;97.06;101295.84;4975483;28;20034;-77
2021/07/08 03:00:27;;;;;;;6.95;2.95;;;;;;;20.53;97.65;101293.97;4977111;28;20496;-77
2021/07/08 03:02:52;;;;;;;5.65;3.00;;;;;;;20.56;97.21;101297.84;4923469;29;20075;-76
2021/07/08 03:05:18;;;;;;;4.57;2.85;;;;;;;20.48;97.26;101277.97;4920864;29;20091;-77
2021/07/08 03:07:44;;;;;;;6.82;3.25;;;;;;;20.44;97.89;101287.44;4920183;29;20131;-77
2021/07/08 03:10:13;;;;;;;4.50;2.88;;;;;;;20.14;97.98;101281.81;4902251;29;20092;-77
2021/07/08 03:12:39;;;;;;;8.80;3.22;;;;;;;20.30;98.24;101276.63;4912962;29;20032;-77
2021/07/08 03:15:06;;;;;;;7.70;3.20;;;;;;;20.42;97.51;101276.88;4891386;29;20067;-77
2021/07/08 03:17:32;;;;;;;10.65;3.20;;;;;;;20.51;97.23;101277.19;4925572;29;20113;-77
2021/07/08 03:19:58;;;;;;;4.05;3.08;;;;;;;20.54;97.20;101275.56;4911458;29;20067;-76
2021/07/08 03:22:24;;;;;;;4.78;3.17;;;;;;;20.54;97.52;101281.06;4907733;29;20075;-77
2021/07/08 03:24:49;;;;;;;4.70;3.28;;;;;;;20.47;97.36;101281.91;4898884;29;20429;-77
2021/07/08 03:27:15;;;;;;;5.03;3.25;;;;;;;20.47;97.15;101278.41;4886113;29;20043;-77
2021/07/08 03:29:40;;;;;;;9.25;3.20;;;;;;;20.52;97.25;101278.72;4903425;29;20115;-77
2021/07/08 03:32:06;;;;;;;4.57;3.10;;;;;;;20.59;97.01;101277.88;4899548;29;20043;-77
2021/07/08 03:34:31;;;;;;;4.32;3.50;;;;;;;20.62;97.03;101282.53;4901322;29;20454;-78
2021/07/08 03:36:57;;;;;;;9.63;3.55;;;;;;;20.61;96.96;101289.22;4911319;29;20135;-78
2021/07/08 03:39:22;;;;;;;3.83;3.45;;;;;;;20.49;96.69;101292.44;4922657;28;20046;-78
2021/07/08 03:41:48;;;;;;;7.88;3.25;;;;;;;20.52;97.38;101305.31;4970579;28;20672;-78
2021/07/08 03:44:14;;;;;;;4.60;3.03;;;;;;;20.44;97.13;101306.59;4954208;28;20380;-78
2021/07/08 03:46:39;;;;;;;6.75;3.30;;;;;;;20.46;96.76;101307.72;4976743;28;20045;-78
2021/07/08 03:49:05;;;;;;;5.18;3.47;;;;;;;20.49;97.20;101311.63;4964567;28;20042;-77
2021/07/08 03:51:30;;;;;;;5.68;2.97;;;;;;;20.55;97.18;101310.00;4952582;28;20046;-78
2021/07/08 03:53:56;;;;;;;5.60;3.65;;;;;;;20.58;97.32;101300.94;4972145;28;20034;-77
2021/07/08 03:56:21;;;;;;;3.60;3.30;;;;;;;20.59;97.57;101305.25;4974722;28;20041;-77
2021/07/08 03:58:46;;;;;;;6.82;3.50;;;;;;;20.53;97.52;101313.13;4975570;28;20057;-78
2021/07/08 04:01:12;;;;;;;3.90;3.40;;;;;;;20.51;97.74;101314.72;4958205;28;20066;-76
2021/07/08 04:03:38;;;;;;;3.95;3.35;;;;;;;20.52;96.72;101314.31;4963520;28;20046;-77
2021/07/08 04:06:03;;;;;;;9.13;3.42;;;;;;;20.43;97.14;101308.53;4976281;28;20031;-77
2021/07/08 04:08:29;;;;;;;3.30;2.95;;;;;;;20.53;96.83;101315.88;4975536;28;20499;-77
2021/07/08 04:10:54;;;;;;;5.75;3.67;;;;;;;20.56;96.87;101317.00;4972404;28;20038;-78
2021/07/08 04:13:21;;;;;;;4.57;3.60;;;;;;;20.53;97.35;101315.88;4995131;28;20479;-78
2021/07/08 04:15:48;;;;;;;4.43;3.20;;;;;;;20.57;97.26;101322.09;4977400;28;20042;-77
2021/07/08 04:18:16;;;;;;;5.18;3.53;;;;;;;20.70;96.85;101327.81;4973744;28;20074;-78
2021/07/08 04:20:42;;;;;;;5.70;3.30;;;;;;;20.67;96.63;101331.38;4975196;28;20034;-78
2021/07/08 04:23:11;;;;;;;7.25;3.72;;;;;;;20.64;97.19;101334.91;4973306;28;20042;-78
2021/07/08 04:25:38;;;;;;;5.68;3.40;;;;;;;20.64;97.72;101340.41;4973470;28;20082;-75
2021/07/08 04:28:04;;;;;;;10.60;4.20;;;;;;;20.74;97.29;101347.72;4976906;28;20037;-77
2021/07/08 04:30:30;;;;;;;4.75;3.30;;;;;;;20.66;96.99;101343.50;4974673;28;20399;-78
2021/07/08 04:32:57;;;;;;;5.28;3.65;;;;;;;20.76;96.54;101336.38;4976672;28;20046;-77
2021/07/08 04:35:36;;;;;;;4.72;3.75;;;;;;;20.88;96.29;101344.84;4983302;28;20105;-78
2021/07/08 04:38:02;;;;;;;4.75;3.80;;;;;;;20.89;96.29;101340.13;4969562;28;20377;-77
2021/07/08 04:40:28;;;;;;;6.30;3.95;;;;;;;20.94;96.04;101359.66;4982124;28;20049;-77
2021/07/08 04:42:53;;;;;;;5.10;3.85;;;;;;;20.90;95.74;101355.41;4978620;28;20527;-77
2021/07/08 04:45:19;;;;;;;8.10;4.10;;;;;;;21.01;96.11;101354.13;4985709;28;20030;-78
2021/07/08 04:47:46;;;;;;;6.22;4.10;;;;;;;21.03;96.34;101359.19;4980979;28;20058;-78
2021/07/08 04:50:17;;;;;;;8.20;4.07;;;;;;;21.06;96.17;101361.13;4973550;28;21578;-78
2021/07/08 04:52:44;;;;;;;;;;;;;;;20.82;95.91;101353.91;4986767;28;20027;-77
2021/07/08 04:55:11;;;;;;;6.50;4.20;;;;;;;20.81;95.46;101361.34;4971575;28;20001;-77
2021/07/08 04:57:37;;;;;;;6.80;4.07;;;;;;;20.85;96.26;101353.13;4973841;28;20085;-77
2021/07/08 05:00:09;;;;;;;10.00;4.40;;;;;;;20.94;96.12;101353.41;4990894;28;20039;-78
2021/07/08 05:02:41;;;;;;;5.68;4.10;;;;;;;20.82;96.05;101353.91;4978303;28;20034;-77
2021/07/08 05:05:09;;;;;;;5.65;4.45;;;;;;;20.74;96.04;101357.91;4981913;28;20039;-78
2021/07/08 05:07:35;;;;;;;9.85;4.20;;;;;;;20.92;96.01;101351.06;4976802;28;20027;-77
2021/07/08 05:10:06;;;;;;;8.10;4.55;;;;;;;21.05;96.59;101348.59;4981502;28;20487;-78
2021/07/08 05:12:31;;;;;;;10.20;4.10;;;;;;;21.14;95.24;101362.56;4975060;28;20034;-78
2021/07/08 05:14:57;;;;;;;6.47;4.10;;;;;;;21.23;94.93;101355.44;4976140;28;20054;-77
2021/07/08 05:17:23;;;;;;;5.90;4.20;;;;;;;21.36;95.05;101356.44;4968678;28;20037;-78
2021/07/08 05:19:49;;;;;;;5.22;4.20;;;;;;;21.53;93.80;101347.22;4983532;28;20069;-76
2021/07/08 05:22:18;;;;;;;6.15;4.00;;;;;;;21.53;93.54;101352.69;4970663;28;20046;-77
2021/07/08 05:24:43;;;;;;;5.57;4.18;;;;;;;21.55;93.48;101350.31;4981975;28;20069;-78
2021/07/08 05:27:15;;;;;;;8.25;4.30;;;;;;;21.60;93.86;101356.53;4980524;28;20066;-76
2021/07/08 05:29:41;;;;;;;5.25;3.97;;;;;;;21.75;93.18;101368.88;4974427;28;20038;-78
2021/07/08 05:32:07;;;;;;;4.32;3.92;;;;;;;21.70;92.69;101381.06;4978629;28;20414;-77
2021/07/08 05:34:32;;;;;;;5.90;4.47;;;;;;;21.89;92.07;101374.94;4979700;28;20046;-77
2021/07/08 05:36:57;;;;;;;6.68;5.00;;;;;;;21.76;91.05;101362.97;4977954;28;20125;-77
2021/07/08 05:39:23;;;;;;;6.20;4.60;;;;;;;21.45;92.91;101353.19;4978685;28;20066;-77
2021/07/08 05:41:48;;;;;;;5.20;4.50;;;;;;;21.45;94.66;101362.19;4960942;28;20566;-76
2021/07/08 05:44:14;;;;;;;8.95;4.70;;;;;;;21.45;93.87;101369.63;4976468;28;20031;-76
2021/07/08 05:46:39;;;;;;;6.97;4.70;;;;;;;21.36;94.27;101375.63;4957804;28;20534;-77
2021/07/08 05:49:05;;;;;;;8.32;4.75;;;;;;;21.44;94.23;101379.84;4970932;28;20053;-76
2021/07/08 05:51:31;;;;;;;7.22;4.72;;;;;;;21.45;93.76;101383.34;4979498;28;20499;-77
2021/07/08 05:53:59;;;;;;;6.53;4.85;;;;;;;21.50;93.59;101385.66;4974836;28;20400;-76
2021/07/08 05:56:25;;;;;;;9.57;4.90;;;;;;;21.46;93.26;101384.91;4967504;28;20019;-76
2021/07/08 05:58:51;;;;;;;9.82;5.03;;;;;;;21.57;93.31;101391.03;4969135;28;20514;-76
2021/07/08 06:01:18;;;;;;;11.90;5.60;;;;;;;21.68;92.63;101374.44;4972837;28;20062;-77
2021/07/08 06:03:43;;;;;;;9.30;4.85;;;;;;;21.61;91.96;101380.00;4970934;28;20070;-76
2021/07/08 06:06:09;;;;;;;6.47;4.80;;;;;;;21.71;91.91;101376.34;4975440;28;20034;-77
2021/07/08 06:08:34;;;;;;;8.88;4.65;;;;;;;21.82;92.26;101372.31;4966274;28;20019;-77
2021/07/08 06:11:00;;;;;;;8.82;4.47;;;;;;;22.04;90.63;101370.81;4970328;28;20538;-77
2021/07/08 06:13:25;;;;;;;6.75;4.90;;;;;;;22.15;89.57;101376.91;4996111;28;20550;-76
2021/07/08 06:15:51;;;;;;;9.32;4.72;;;;;;;21.96;89.68;101382.31;4972753;28;20114;-76
2021/07/08 06:18:16;;;;;;;8.85;4.20;;;;;;;22.04;91.19;101381.00;4972010;28;20067;-76
2021/07/08 06:20:41;;;;;;;6.35;5.18;;;;;;;22.18;89.36;101386.28;4972650;28;20562;-77
2021/07/08 06:23:07;;;;;;;6.90;5.03;;;;;;;22.14;88.45;101391.06;4969761;28;20101;-77
2021/07/08 06:25:32;;;;;;;9.15;4.63;;;;;;;22.32;88.68;101394.28;4977126;28;20042;-76
2021/07/08 06:27:59;;;;;;;8.60;4.40;;;;;;;22.48;88.67;101397.16;4971629;28;20039;-76
2021/07/08 06:30:24;;;;;;;6.20;4.63;;;;;;;22.52;88.54;101397.09;4971494;28;20035;-77
2021/07/08 06:32:49;;;;;;;5.88;4.10;;;;;;;22.64;88.35;101393.78;4973327;28;20129;-81
2021/07/08 06:35:18;;;;;;;8.93;4.40;;;;;;;22.66;88.35;101394.16;4964429;28;20045;-77
2021/07/08 06:37:44;;;;;;;8.27;4.35;;;;;;;22.93;87.81;101401.13;4973336;28;20144;-77
2021/07/08 06:40:11;;;;;;;6.38;4.30;;;;;;;22.92;88.22;101401.53;4968129;28;20038;-77
2021/07/08 06:42:38;;;;;;;12.45;4.57;;;;;;;22.89;87.45;101407.88;4965788;28;20110;-77
2021/07/08 06:45:05;;;;;;;8.80;4.30;;;;;;;22.81;87.42;101412.72;4969175;28;20039;-76
2021/07/08 06:47:38;;;;;;;6.90;3.67;;;;;;;22.69;88.31;101410.56;4968735;28;20042;-77
2021/07/08 06:50:05;;;;;;;6.93;4.18;;;;;;;22.69;89.11;101409.78;4975717;28;20122;-77
2021/07/08 06:52:31;;;;;;;8.32;3.88;;;;;;;22.75;88.90;101419.09;4975043;28;20115;-76
2021/07/08 06:54:56;;;;;;;21.48;5.05;;;;;;;22.68;89.37;101419.22;4977108;28;20038;-78
2021/07/08 06:57:22;;;;;;;7.38;3.90;;;;;;;22.72;89.74;101412.50;4972309;28;20081;-76
2021/07/08 06:59:48;;;;;;;8.32;4.68;;;;;;;22.90;89.43;101410.19;4972824;28;20087;-76
2021/07/08 07:02:13;;;;;;;7.85;4.38;;;;;;;22.98;88.62;101413.59;4953163;28;20051;-77
2021/07/08 07:04:39;;;;;;;7.40;4.10;;;;;;;22.88;89.23;101406.34;4967756;28;20058;-77
2021/07/08 07:07:05;;;;;;;4.95;4.03;;;;;;;23.05;88.16;101411.47;4975335;28;20535;-76
2021/07/08 07:09:31;;;;;;;7.53;4.43;;;;;;;23.01;89.93;101413.53;4970613;28;20093;-78
2021/07/08 07:11:56;;;;;;;5.60;4.30;;;;;;;23.10;88.70;101413.75;4974723;28;20039;-76
2021/07/08 07:14:22;;;;;;;7.38;4.00;;;;;;;23.06;87.31;101426.78;4970539;28;20065;-76
2021/07/08 07:16:47;;;;;;;8.93;4.70;;;;;;;23.14;86.93;101430.16;4970171;28;20034;-77
2021/07/08 07:19:13;;;;;;;4.50;3.90;;;;;;;23.34;87.73;101427.47;4973486;28;20571;-77
2021/07/08 07:21:38;;;;;;;10.63;4.63;;;;;;;23.53;85.36;101434.94;4969453;28;20027;-77
2021/07/08 07:24:04;;;;;;;4.97;4.20;;;;;;;23.74;84.33;101429.78;4969337;28;20031;-76
2021/07/08 07:26:30;;;;;;;9.05;4.00;;;;;;;23.85;83.43;101437.78;4968075;28;20419;-78
2021/07/08 07:28:55;;;;;;;9.20;4.15;;;;;;;24.03;83.40;101440.97;4991754;28;20041;-76
2021/07/08 07:31:21;;;;;;;3.95;3.35;;;;;;;24.11;82.51;101442.38;4969358;28;20074;-79
2021/07/08 07:33:46;;;;;;;4.28;3.83;;;;;;;24.08;82.28;101443.19;4968094;28;20385;-77
2021/07/08 07:36:13;;;;;;;10.40;4.15;;;;;;;24.10;81.28;101449.84;4973709;28;21335;-76
2021/07/08 07:38:39;;;;;;;7.30;3.95;;;;;;;23.93;80.83;101453.75;4973136;28;20088;-76
2021/07/08 07:41:06;;;;;;;9.07;4.03;;;;;;;23.97;80.97;101453.66;4970829;28;20178;-76
2021/07/08 07:43:32;;;;;;;9.68;3.95;;;;;;;23.82;80.50;101452.41;4962901;28;20089;-77
2021/07/08 07:45:58;;;;;;;5.63;4.28;;;;;;;23.86;81.52;101439.34;4977739;28;20109;-77
2021/07/08 07:48:23;;;;;;;6.40;4.00;;;;;;;24.12;81.63;101430.91;4983061;28;20181;-77
2021/07/08 07:50:49;;;;;;;9.90;4.10;;;;;;;24.34;82.56;101439.47;4966890;28;20034;-77
2021/07/08 07:53:14;;;;;;;6.85;4.35;;;;;;;24.38;81.35;101439.38;4954410;28;20036;-77
2021/07/08 07:55:40;;;;;;;7.82;3.72;;;;;;;24.39;81.15;101435.44;4979984;28;20024;-77
2021/07/08 07:58:06;;;;;;;9.65;3.40;;;;;;;24.64;80.14;101422.56;4965835;28;20538;-78
2021/07/08 08:00:32;;;;;;;8.80;3.72;;;;;;;24.65;80.77;101418.63;4973097;28;20504;-77
2021/07/08 08:02:58;;;;;;;7.20;3.45;;;;;;;24.96;79.85;101414.31;4989862;23;20653;-74
2021/07/08 08:10:38;;;;;;;4.65;3.72;;;;;;;24.93;80.21;101420.66;4967428;28;20031;-75
2021/07/08 08:13:05;;;;;;;11.10;3.78;;;;;;;24.79;80.24;101421.06;4968333;28;20582;-75
2021/07/08 08:15:31;;;;;;;6.80;3.60;;;;;;;24.96;81.88;101424.53;4966427;28;20166;-75
2021/07/08 08:18:00;;;;;;;5.40;4.03;;;;;;;25.19;82.23;101410.53;4964079;28;20114;-77
2021/07/08 08:20:26;;;;;;;8.60;3.60;;;;;;;25.21;81.94;101407.31;4967624;28;20038;-77
2021/07/08 08:22:51;;;;;;;7.15;3.40;;;;;;;25.21;78.96;101418.34;4970696;28;20538;-77
2021/07/08 08:25:17;;;;;;;7.13;3.40;;;;;;;25.32;78.63;101418.84;4969618;28;20034;-78
2021/07/08 08:27:42;;;;;;;5.90;3.70;;;;;;;25.47;79.08;101418.03;4968834;28;20471;-79
2021/07/08 08:30:11;;;;;;;9.15;3.58;;;;;;;25.65;77.22;101429.31;4967635;28;20035;-78
2021/07/08 08:32:36;;;;;;;7.00;3.65;;;;;;;25.99;77.78;101437.00;4973186;28;20026;-78
2021/07/08 08:35:02;;;;;;;7.80;3.72;;;;;;;26.00;75.61;101441.28;4960697;28;20027;-77
2021/07/08 08:37:28;;;;;;;6.63;3.40;;;;;;;25.96;76.36;101434.34;4969430;28;20089;-77
2021/07/08 08:39:53;;;;;;;9.20;3.28;;;;;;;26.14;77.21;101440.88;4966455;28;20043;-78
2021/07/08 08:42:19;;;;;;;5.78;3.30;;;;;;;26.15;75.30;101438.91;4960180;28;20054;-77
2021/07/08 08:44:44;;;;;;;7.93;3.38;;;;;;;26.17;75.62;101433.72;4966822;28;20114;-78
2021/07/08 08:47:11;;;;;;;5.05;3.08;;;;;;;26.26;75.82;101434.59;4963485;28;20557;-77
2021/07/08 08:49:41;;;;;;;6.05;2.97;;;;;;;26.45;74.90;101432.78;4967263;28;20498;-78
2021/07/08 08:52:08;;;;;;;6.37;3.30;;;;;;;26.21;73.22;101440.66;4965143;28;20027;-78
2021/07/08 08:54:34;;;;;;;7.68;3.20;;;;;;;26.05;73.51;101437.22;4971101;28;20288;-77
2021/07/08 08:57:01;;;;;;;11.02;3.35;;;;;;;26.22;75.65;101438.66;4968248;28;20097;-78
2021/07/08 08:59:27;;;;;;;12.02;3.28;;;;;;;26.40;75.22;101450.69;4963591;28;20509;-77
2021/07/08 09:02:18;;;;;;;8.18;3.20;;;;;;;26.24;74.08;101450.84;4965978;28;20043;-78
2021/07/08 09:04:44;;;;;;;;;;;;;;;26.11;74.93;101449.28;4973028;28;20053;-78
2021/07/08 09:07:26;;;;;;;6.72;3.20;;;;;;;26.26;73.10;101448.41;4966741;28;19919;-77
2021/07/08 09:09:56;;;;;;;6.47;3.00;;;;;;;26.35;72.45;101445.75;4957943;28;20038;-78
2021/07/08 09:12:24;;;;;;;5.80;3.05;;;;;;;26.39;72.95;101442.84;4967866;28;20161;-77
2021/07/08 09:14:51;;;;;;;5.38;3.20;;;;;;;26.48;73.79;101446.50;4951018;28;20027;-77
2021/07/08 09:17:19;;;;;;;7.45;2.80;;;;;;;26.20;70.81;101444.66;4962763;28;20043;-77
2021/07/08 09:19:46;;;;;;;7.28;3.08;;;;;;;26.05;72.76;101451.81;4967865;28;20038;-78
2021/07/08 09:22:13;;;;;;;13.20;3.10;;;;;;;26.10;71.02;101456.78;4966163;28;20045;-77
2021/07/08 09:24:39;;;;;;;4.78;3.08;;;;;;;26.07;72.97;101452.16;4955368;28;20038;-78
2021/07/08 09:27:09;;;;;;;9.35;3.15;;;;;;;26.17;73.57;101450.28;4970441;28;20372;-78
2021/07/08 09:29:40;;;;;;;11.02;3.60;;;;;;;26.27;71.87;101436.13;4968261;28;20061;-77
2021/07/08 09:32:11;;;;;;;11.40;3.30;;;;;;;26.26;74.51;101439.34;4964850;28;20063;-78
2021/07/08 09:34:39;;;;;;;7.35;2.90;;;;;;;26.27;73.24;101433.34;4971453;28;20070;-78
2021/07/08 09:37:07;;;;;;;4.10;2.90;;;;;;;26.17;72.39;101445.50;4968969;28;20038;-78
2021/07/08 09:39:38;;;;;;;5.03;2.80;;;;;;;26.27;71.02;101447.16;4967752;28;20034;-78
2021/07/08 09:42:04;;;;;;;4.03;2.87;;;;;;;26.70;72.61;101452.13;4973112;28;20066;-78
2021/07/08 09:44:30;;;;;;;9.48;3.38;;;;;;;26.81;69.41;101460.81;4970011;28;20049;-79
2021/07/08 09:46:57;;;;;;;8.35;3.28;;;;;;;26.72;69.36;101458.75;4971825;28;20047;-78
2021/07/08 09:49:24;;;;;;;7.82;3.03;;;;;;;26.76;70.18;101461.41;4966096;28;20534;-77
2021/07/08 09:51:51;;;;;;;3.90;3.10;;;;;;;26.95;70.56;101456.81;4961545;28;20536;-77
2021/07/08 09:54:44;;;;;;;4.00;2.70;;;;;;;26.61;70.40;101463.84;4969661;28;20035;-77
2021/07/08 09:57:30;;;;;;;6.47;3.50;;;;;;;26.35;70.52;101465.06;4969371;28;20487;-77
2021/07/08 09:59:56;;;;;;;7.00;3.30;;;;;;;26.40;70.28;101458.97;4971641;28;20043;-78
2021/07/08 10:02:33;;;;;;;7.18;3.08;;;;;;;26.63;69.70;101461.41;4967621;28;20736;-78
2021/07/08 10:05:01;;;;;;;5.43;3.10;;;;;;;26.66;70.38;101471.56;4947291;28;20571;-78
2021/07/08 10:07:28;;;;;;;6.75;3.70;;;;;;;26.73;70.33;101465.06;4955971;28;20023;-78
2021/07/08 10:09:54;;;;;;;7.97;3.25;;;;;;;26.77;71.33;101472.00;4971971;28;20061;-78
2021/07/08 10:12:21;;;;;;;6.47;3.13;;;;;;;26.87;71.24;101463.81;4972068;28;20027;-78
2021/07/08 10:14:50;;;;;;;5.13;3.35;;;;;;;27.14;70.37;101462.06;4976220;28;20019;-79
2021/07/08 10:17:19;;;;;;;7.13;3.47;;;;;;;27.22;68.08;101455.06;4973291;28;20094;-78
2021/07/08 10:19:46;;;;;;;7.43;3.70;;;;;;;27.18;71.83;101456.38;4978353;28;20384;-79
2021/07/08 10:22:12;;;;;;;10.88;3.20;;;;;;;26.96;68.64;101450.84;4969562;28;20035;-79
2021/07/08 10:24:38;;;;;;;5.40;3.22;;;;;;;26.93;69.12;101450.94;4966317;28;20411;-78
2021/07/08 10:27:06;;;;;;;8.10;3.45;;;;;;;26.77;67.76;101452.66;4968030;28;20037;-78
2021/07/08 10:29:32;;;;;;;7.28;3.00;;;;;;;26.79;70.38;101449.44;4969196;28;20034;-78
2021/07/08 10:31:58;;;;;;;6.03;3.35;;;;;;;26.90;70.49;101446.31;4965189;28;20027;-77
2021/07/08 10:34:23;;;;;;;7.78;3.20;;;;;;;26.94;66.23;101455.28;4966925;28;20055;-76
2021/07/08 10:36:51;;;;;;;7.40;3.05;;;;;;;27.02;65.08;101460.13;4968105;28;20027;-76
2021/07/08 10:39:19;;;;;;;7.63;2.50;;;;;;;26.94;66.73;101453.28;4970431;28;20027;-77
2021/07/08 10:41:58;;;;;;;5.30;2.78;;;;;;;26.95;65.77;101448.50;4966161;28;20122;-76
2021/07/08 10:44:33;;;;;;;6.25;2.65;;;;;;;27.02;63.93;101459.34;4960898;28;20073;-76
2021/07/08 10:46:59;;;;;;;7.90;2.67;;;;;;;27.11;65.74;101462.97;4963553;28;20043;-76
2021/07/08 10:49:36;;;;;;;3.65;2.50;;;;;;;27.28;63.14;101456.03;4973608;28;20031;-77
2021/07/08 10:52:02;;;;;;;5.97;2.55;;;;;;;27.36;62.92;101451.03;4968425;28;20769;-77
2021/07/08 10:54:30;;;;;;;12.55;2.83;;;;;;;27.37;61.14;101452.59;4967615;28;20033;-76
2021/07/08 10:57:00;;;;;;;4.70;2.53;;;;;;;27.23;62.53;101459.38;4964937;28;20039;-76
2021/07/08 10:59:45;;;;;;;6.63;2.55;;;;;;;27.07;63.27;101456.78;4967627;28;20054;-77
2021/07/08 11:02:50;;;;;;;10.35;3.35;;;;;;;27.03;64.08;101453.34;4966796;28;20061;-76
2021/07/08 11:05:55;;;;;;;5.65;2.58;;;;;;;27.10;62.15;101452.34;4979429;28;20044;-76
2021/07/08 11:08:45;;;;;;;5.18;2.92;;;;;;;27.08;62.65;101449.25;4970373;28;20042;-76
2021/07/08 11:11:12;;;;;;;4.43;2.25;;;;;;;27.31;64.85;101448.81;4969569;28;20601;-76
2021/07/08 11:13:37;;;;;;;6.63;2.75;;;;;;;27.24;64.08;101433.25;4961225;28;20035;-75
2021/07/08 11:16:03;;;;;;;7.78;2.97;;;;;;;27.49;65.64;101435.13;4960521;28;20451;-76
2021/07/08 11:18:30;;;;;;;5.95;3.05;;;;;;;27.57;65.14;101430.88;4964996;28;20043;-76
2021/07/08 11:20:56;;;;;;;3.92;3.22;;;;;;;27.51;64.24;101432.66;4966002;28;20507;-75
2021/07/08 11:23:39;;;;;;;8.00;3.45;;;;;;;27.39;64.65;101422.47;4974057;28;20031;-76
2021/07/08 11:26:07;;;;;;;4.70;2.97;;;;;;;27.81;64.82;101423.63;4956417;28;20050;-75
2021/07/08 11:28:33;;;;;;;9.68;2.95;;;;;;;27.85;64.34;101420.72;4976359;28;20402;-76
2021/07/08 11:31:01;;;;;;;4.80;2.97;;;;;;;27.82;65.75;101410.53;4970378;28;20085;-76
2021/07/08 11:33:29;;;;;;;5.57;2.88;;;;;;;27.88;63.92;101408.72;4966676;28;20037;-76